• Join FlightAware (Why Join?)
  • Login
  • US Flag 
04:13AM EDT


 

Airport Tracker/Info


-or-


 

Live Flight TrackerFlight Track Log ✈ N9769H ✈ 09-Jul-2013 ✈ KHYK - KCGI

Flight Track Log - Related Links

Times and Time Zones

All times are in EDT time to prevent confusion due to time zone crossing. See the N9769H flight status page for this flight to view local times or setup timezone preferences in your user account.

Time Position Orientation Groundspeed Altitude Reporting Facility
EDT Latitude Longitude Course Direction KTS MPH feet Rate Location/Type
10:16PM 38.0111 -84.7222 259° West 79 91 3,900  Level Indianapolis Center
10:17PM 38.0064 -84.7519 259° West 83 96 4,400 240 Climbing Indianapolis Center
10:18PM 38.0017 -84.7869 260° West 90 104 4,500 60 Climbing Indianapolis Center
10:19PM 37.9967 -84.8275 261° West 102 117 4,600 60 Climbing Indianapolis Center
10:20PM 37.9914 -84.8683 261° West 111 128 4,700  Climbing Indianapolis Center
10:21PM 37.9844 -84.9108 258° West 115 132 4,700  Level Indianapolis Center
10:22PM 37.9797 -84.9525 262° West 118 136 4,700 -60 Level Indianapolis Center
10:23PM 37.9747 -84.9939 261° West 119 137 4,600 -60 Descending Indianapolis Center
10:24PM 37.9681 -85.0361 259° West 120 138 4,600 60 Level Indianapolis Center
10:25PM 37.9625 -85.0806 261° West 119 137 4,800 420 Climbing Indianapolis Center
10:26PM 37.9575 -85.1189 261° West 113 130 5,500 540 Climbing Indianapolis Center
10:27PM 37.9494 -85.1556 254° West 107 123 5,900 420 Climbing Indianapolis Center
10:28PM 37.9439 -85.1892 258° West 101 116 6,400 300 Climbing Indianapolis Center
10:29PM 37.9383 -85.2267 259° West 104 120 6,600 120 Climbing Indianapolis Center
10:30PM 37.9325 -85.2708 261° West 119 137 6,700  Climbing Indianapolis Center
10:31PM 37.9286 -85.3133 263° West 123 142 6,700  Level Indianapolis Center
10:32PM 37.9236 -85.3564 262° West 122 140 6,700  Level Indianapolis Center
10:33PM 37.9181 -85.4025 261° West 129 148 6,700  Level Indianapolis Center
10:34PM 37.9119 -85.4467 260° West 129 148 6,700 -60 Level Indianapolis Center
10:35PM 37.9039 -85.4914 257° West 130 150 6,600 -60 Descending Indianapolis Center
10:36PM 37.8958 -85.5358 257° West 129 148 6,600  Level Indianapolis Center
10:37PM 37.8872 -85.5803 256° West 130 150 6,600  Level Indianapolis Center
10:38PM 37.8806 -85.6244 259° West 127 146 6,600 -60 Level Indianapolis Center
10:39PM 37.8697 -85.6761 255° West 131 151 6,500 -60 Descending Indianapolis Center
10:40PM 37.8647 -85.7219 262° West 128 147 6,500  Level Indianapolis Center
10:41PM 37.8578 -85.7661 259° West 127 146 6,500  Level Indianapolis Center
10:42PM 37.8508 -85.8092 258° West 125 144 6,600  Climbing Indianapolis Center
10:44PM 37.8436 -85.8533 258° West 127 146 6,600  Level Indianapolis Center
10:45PM 37.8361 -85.8978 258° West 128 147 6,600  Level Indianapolis Center
10:46PM 37.8289 -85.9425 258° West 130 150 6,600  Level Indianapolis Center
10:47PM 37.8236 -85.9861 261° West 128 147 6,600  Level Indianapolis Center
10:48PM 37.8178 -86.0306 261° West 128 147 6,700  Climbing Indianapolis Center
10:49PM 37.8117 -86.0753 260° West 128 147 6,700  Level Indianapolis Center
10:50PM 37.8050 -86.1189 259° West 127 146 6,700  Level Indianapolis Center
10:51PM 37.8000 -86.1639 262° West 128 147 6,700  Level Indianapolis Center
10:52PM 37.7925 -86.2178 260° West 129 148 6,700 -60 Level Indianapolis Center
10:53PM 37.7858 -86.2622 259° West 128 147 6,600 -60 Descending Indianapolis Center
10:54PM 37.7800 -86.3067 261° West 128 147 6,600  Level Indianapolis Center
10:55PM 37.7747 -86.3517 262° West 129 148 6,600  Level Indianapolis Center
10:56PM 37.7689 -86.3958 261° West 128 147 6,600  Level Indianapolis Center
10:57PM 37.7631 -86.4403 261° West 128 147 6,600  Level Indianapolis Center
10:58PM 37.7561 -86.4842 259° West 127 146 6,600  Level Indianapolis Center
10:59PM 37.7489 -86.5289 258° West 128 147 6,700  Climbing Indianapolis Center
11:00PM 37.7425 -86.5733 260° West 129 148 6,600 -60 Descending Indianapolis Center
11:01PM 37.7358 -86.6189 260° West 130 150 6,600  Level Indianapolis Center
11:02PM 37.7300 -86.6636 261° West 129 148 6,700  Climbing Indianapolis Center
11:03PM 37.7200 -86.7156 256° West 127 146 6,700  Level Indianapolis Center
11:04PM 37.7133 -86.7608 259° West 129 148 6,800  Climbing Indianapolis Center
11:05PM 37.7050 -86.8067 257° West 131 151 6,700 -120 Descending Indianapolis Center
11:06PM 37.6983 -86.8525 260° West 133 153 6,600 -60 Descending Indianapolis Center
11:07PM 37.6908 -86.8986 258° West 133 153 6,600 -60 Level Indianapolis Center
11:08PM 37.6836 -86.9431 258° West 130 150 6,500 -60 Descending Indianapolis Center
11:09PM 37.6750 -86.9875 256° West 130 150 6,500  Level Indianapolis Center
11:10PM 37.6669 -87.0319 257° West 130 150 6,500  Level Indianapolis Center
11:11PM 37.6592 -87.0764 258° West 129 148 6,500  Level Indianapolis Center
11:12PM 37.6508 -87.1208 257° West 129 148 6,500  Level Indianapolis Center
11:13PM 37.6428 -87.1656 257° West 130 150 6,500  Level Indianapolis Center
11:14PM 37.6342 -87.2203 259° West 132 152 6,500  Level Indianapolis Center
11:15PM 37.6261 -87.2650 257° West 131 151 6,500  Level Indianapolis Center
11:16PM 37.6186 -87.3100 258° West 131 151 6,500  Level Indianapolis Center
11:17PM 37.6106 -87.3550 257° West 132 152 6,500  Level Indianapolis Center
11:18PM 37.6039 -87.4011 260° West 132 152 6,500  Level Indianapolis Center
11:19PM 37.5958 -87.4467 257° West 132 152 6,500  Level Indianapolis Center
11:20PM 37.5886 -87.4922 259° West 133 153 6,500  Level Indianapolis Center
11:21PM 37.5825 -87.5364 260° West 129 148 6,500  Level Indianapolis Center
11:22PM 37.5756 -87.5819 259° West 131 151 6,500  Level Indianapolis Center
11:23PM 37.5692 -87.6272 260° West 131 151 6,500  Level Indianapolis Center
11:24PM 37.5619 -87.6725 259° West 130 150 6,500  Level Indianapolis Center
11:26PM 37.5533 -87.7275 259° West 133 153 6,500  Level Indianapolis Center
11:27PM 37.5456 -87.7733 258° West 133 153 6,500  Level Indianapolis Center
11:28PM 37.5381 -87.8181 258° West 131 151 6,600  Climbing Indianapolis Center
11:29PM 37.5303 -87.8642 258° West 133 153 6,600  Level Indianapolis Center
11:30PM 37.5217 -87.9092 256° West 132 152 6,600  Level Indianapolis Center
11:31PM 37.5142 -87.9544 258° West 132 152 6,600  Level Indianapolis Center
11:32PM 37.5075 -88.0000 260° West 131 151 6,600  Level Indianapolis Center
11:33PM 37.4989 -88.0467 257° West 134 154 6,700  Climbing Indianapolis Center
11:34PM 37.4925 -88.0908 260° West 132 152 6,700  Level Indianapolis Center
11:35PM 37.4839 -88.1358 256° West 132 152 6,700  Level Indianapolis Center
11:36PM 37.4769 -88.1825 259° West 133 153 6,700 -60 Level Indianapolis Center
11:37PM 37.4692 -88.2381 260° West 134 154 6,600 -120 Descending Indianapolis Center
11:38PM 37.4611 -88.2850 258° West 135 155 6,500 -60 Descending Indianapolis Center
11:39PM 37.4536 -88.3331 259° West 139 160 6,500 -60 Level Indianapolis Center
11:40PM 37.4464 -88.3775 258° West 135 155 6,400 -120 Descending Indianapolis Center